Time;durP1;ratioP1;P1;durP2;ratioP2;P2;SDS_P1;SDS_P2;PMS_P1;PMS_P2;Temp;Humidity;BMP_temperature;BMP_pressure;BME280_temperature;BME280_humidity;BME280_pressure;Samples;Min_cycle;Max_cycle;Signal;HPM_P1;HPM_P2
2022/10/27 00:00:24;;;;;;;;;;;;;;;;;;4965549;28;19933;-86
2022/10/27 00:02:52;;;;;;;;;;;;;;;;;;4970613;28;20295;-86
2022/10/27 00:05:21;;;;;;;;;;;;;;;;;;4963676;28;19929;-85
2022/10/27 00:07:48;;;;;;;;;;;;;;;;;;4986559;28;20005;-87
2022/10/27 00:10:16;;;;;;;;;;;;;;;;;;4986149;28;19929;-86
2022/10/27 00:12:43;;;;;;;;;;;;;;;;;;4976896;28;19930;-86
2022/10/27 00:15:11;;;;;;;;;;;;;;;;;;4986362;28;19933;-86
2022/10/27 00:17:38;;;;;;;;;;;;;;;;;;4974461;28;19929;-86
2022/10/27 00:20:06;;;;;;;;;;;;;;;;;;4961628;28;19922;-86
2022/10/27 00:22:38;;;;;;;;;;;;;;;;;;4962684;28;19942;-86
2022/10/27 00:25:06;;;;;;;;;;;;;;;;;;4974416;28;20296;-86
2022/10/27 00:27:38;;;;;;;;;;;;;;;;;;4988476;28;20286;-86
2022/10/27 00:30:06;;;;;;;;;;;;;;;;;;4989872;28;19926;-86
2022/10/27 00:32:33;;;;;;;;;;;;;;;;;;4979407;28;19922;-86
2022/10/27 00:35:01;;;;;;;;;;;;;;;;;;4971275;28;20010;-86
2022/10/27 00:37:28;;;;;;;;;;;;;;;;;;4983966;28;20383;-86
2022/10/27 00:39:56;;;;;;;;;;;;;;;;;;4976860;28;19922;-86
2022/10/27 00:42:23;;;;;;;;;;;;;;;;;;4973250;28;20836;-86
2022/10/27 00:44:56;;;;;;;;;;;;;;;;;;4973600;28;19926;-86
2022/10/27 00:47:30;;;;;;;;;;;;;;;;;;4974813;28;19930;-86
2022/10/27 00:50:02;;;;;;;;;;;;;;;;;;4985478;28;19923;-86
2022/10/27 00:52:30;;;;;;;;;;;;;;;;;;4981773;28;19922;-86
2022/10/27 00:55:02;;;;;;;;;;;;;;;;;;4967926;28;19922;-86
2022/10/27 00:57:30;;;;;;;;;;;;;;;;;;4989525;28;19929;-86
2022/10/27 00:59:57;;;;;;;;;;;;;;;;;;4972204;28;20284;-86
2022/10/27 01:02:25;;;;;;;;;;;;;;;;;;4971393;28;19949;-86
2022/10/27 01:04:53;;;;;;;;;;;;;;;;;;4972527;28;20331;-86
2022/10/27 01:07:20;;;;;;;;;;;;;;;;;;4972383;28;19922;-85
2022/10/27 01:09:48;;;;;;;;;;;;;;;;;;4969857;28;20363;-86
2022/10/27 01:12:15;;;;;;;;;;;;;;;;;;4985498;28;20298;-86
2022/10/27 01:14:48;;;;;;;;;;;;;;;;;;4984448;28;19922;-86
2022/10/27 01:17:15;;;;;;;;;;;;;;;;;;4964628;28;19932;-85
2022/10/27 01:19:43;;;;;;;;;;;;;;;;;;4971188;28;19929;-86
2022/10/27 01:22:10;;;;;;;;;;;;;;;;;;4972236;28;20291;-86
2022/10/27 01:24:38;;;;;;;;;;;;;;;;;;4969813;28;19929;-86
2022/10/27 01:27:05;;;;;;;;;;;;;;;;;;4973565;28;19933;-86
2022/10/27 01:29:33;;;;;;;;;;;;;;;;;;4970147;28;20272;-86
2022/10/27 01:32:00;;;;;;;;;;;;;;;;;;4986001;28;20295;-86
2022/10/27 01:34:33;;;;;;;;;;;;;;;;;;4974632;28;19933;-86
2022/10/27 01:37:00;;;;;;;;;;;;;;;;;;4975118;28;19922;-86
2022/10/27 01:39:32;;;;;;;;;;;;;;;;;;4971429;28;19922;-86
2022/10/27 01:42:00;;;;;;;;;;;;;;;;;;4986979;28;19925;-86
2022/10/27 01:44:27;;;;;;;;;;;;;;;;;;4972459;28;19922;-86
2022/10/27 01:46:55;;;;;;;;;;;;;;;;;;4972562;28;19930;-86
2022/10/27 01:49:27;;;;;;;;;;;;;;;;;;4972003;28;19922;-87
2022/10/27 01:51:55;;;;;;;;;;;;;;;;;;4978648;28;19926;-87
2022/10/27 01:54:22;;;;;;;;;;;;;;;;;;4970596;28;19923;-86
2022/10/27 01:56:50;;;;;;;;;;;;;;;;;;4986429;28;20318;-86
2022/10/27 01:59:17;;;;;;;;;;;;;;;;;;4986516;28;19930;-86
2022/10/27 02:01:50;;;;;;;;;;;;;;;;;;4957198;28;19922;-86
2022/10/27 02:04:22;;;;;;;;;;;;;;;;;;4974042;28;20282;-86
2022/10/27 02:06:50;;;;;;;;;;;;;;;;;;4990216;28;19929;-86
2022/10/27 02:09:22;;;;;;;;;;;;;;;;;;4973580;28;19922;-86
2022/10/27 02:11:51;;;;;;;;;;;;;;;;;;4970466;28;20385;-86
2022/10/27 02:14:18;;;;;;;;;;;;;;;;;;4979283;28;19929;-86
2022/10/27 02:16:46;;;;;;;;;;;;;;;;;;4990099;28;19922;-86
2022/10/27 02:19:13;;;;;;;;;;;;;;;;;;4989600;28;19922;-86
2022/10/27 02:21:41;;;;;;;;;;;;;;;;;;4973800;28;19929;-87
2022/10/27 02:24:08;;;;;;;;;;;;;;;;;;4973762;28;20366;-86
2022/10/27 02:26:36;;;;;;;;;;;;;;;;;;4973600;28;19949;-86
2022/10/27 02:29:03;;;;;;;;;;;;;;;;;;4974901;28;19922;-87
2022/10/27 02:31:31;;;;;;;;;;;;;;;;;;4975328;28;19922;-87
2022/10/27 02:33:58;;;;;;;;;;;;;;;;;;4973201;28;20394;-86
2022/10/27 02:36:26;;;;;;;;;;;;;;;;;;4973542;28;19933;-87
2022/10/27 02:38:58;;;;;;;;;;;;;;;;;;4974676;28;20283;-86
2022/10/27 02:41:26;;;;;;;;;;;;;;;;;;4973328;28;19926;-86
2022/10/27 02:43:58;;;;;;;;;;;;;;;;;;4974790;28;19929;-86
2022/10/27 02:46:26;;;;;;;;;;;;;;;;;;4973515;28;19926;-86
2022/10/27 02:48:58;;;;;;;;;;;;;;;;;;4974989;28;19922;-87
2022/10/27 02:51:26;;;;;;;;;;;;;;;;;;4974990;28;19926;-86
2022/10/27 02:53:58;;;;;;;;;;;;;;;;;;4973511;28;19937;-87
2022/10/27 02:56:26;;;;;;;;;;;;;;;;;;4970921;28;19997;-87
2022/10/27 02:58:53;;;;;;;;;;;;;;;;;;4984578;28;19929;-86
2022/10/27 03:01:21;;;;;;;;;;;;;;;;;;4970526;28;20287;-86
2022/10/27 03:03:53;;;;;;;;;;;;;;;;;;4955618;28;20383;-86
2022/10/27 03:06:21;;;;;;;;;;;;;;;;;;4970058;28;20368;-86
2022/10/27 03:08:48;;;;;;;;;;;;;;;;;;4969862;28;19930;-87
2022/10/27 03:11:16;;;;;;;;;;;;;;;;;;4955253;29;19926;-87
2022/10/27 03:13:43;;;;;;;;;;;;;;;;;;4959554;28;19929;-87
2022/10/27 03:16:11;;;;;;;;;;;;;;;;;;4980610;28;19926;-86
2022/10/27 03:18:38;;;;;;;;;;;;;;;;;;4988938;28;19922;-87
2022/10/27 03:21:06;;;;;;;;;;;;;;;;;;4970868;28;19933;-87
2022/10/27 03:23:33;;;;;;;;;;;;;;;;;;4974436;28;19922;-86
2022/10/27 03:26:06;;;;;;;;;;;;;;;;;;4961493;28;19930;-86
2022/10/27 03:28:38;;;;;;;;;;;;;;;;;;4974123;28;19922;-87
2022/10/27 03:31:11;;;;;;;;;;;;;;;;;;4973134;28;19922;-87
2022/10/27 03:33:43;;;;;;;;;;;;;;;;;;4973763;28;20202;-87
2022/10/27 03:36:16;;;;;;;;;;;;;;;;;;4971581;28;19930;-87
2022/10/27 03:38:48;;;;;;;;;;;;;;;;;;4969425;28;20279;-87
2022/10/27 03:41:21;;;;;;;;;;;;;;;;;;4963035;28;19926;-86
2022/10/27 03:43:53;;;;;;;;;;;;;;;;;;4968751;28;19946;-86
2022/10/27 03:46:26;;;;;;;;;;;;;;;;;;4970787;28;20322;-86
2022/10/27 03:48:58;;;;;;;;;;;;;;;;;;4970698;28;19922;-87
2022/10/27 03:51:31;;;;;;;;;;;;;;;;;;4953976;28;19934;-86
2022/10/27 03:53:58;;;;;;;;;;;;;;;;;;4970791;28;19922;-87
2022/10/27 03:56:26;;;;;;;;;;;;;;;;;;4970399;28;19929;-87
2022/10/27 03:58:58;;;;;;;;;;;;;;;;;;4969923;28;19922;-87
2022/10/27 04:01:25;;;;;;;;;;;;;;;;;;4969333;28;19922;-87
2022/10/27 04:03:53;;;;;;;;;;;;;;;;;;4969642;28;20300;-87
2022/10/27 04:06:20;;;;;;;;;;;;;;;;;;4969266;28;20307;-87
2022/10/27 04:08:48;;;;;;;;;;;;;;;;;;4969552;28;19922;-86
2022/10/27 04:11:15;;;;;;;;;;;;;;;;;;4969679;28;20246;-87
2022/10/27 04:13:48;;;;;;;;;;;;;;;;;;4971940;28;19922;-87
2022/10/27 04:16:20;;;;;;;;;;;;;;;;;;4969553;28;19926;-87
2022/10/27 04:18:48;;;;;;;;;;;;;;;;;;4963444;28;19933;-88
2022/10/27 04:21:15;;;;;;;;;;;;;;;;;;4970800;28;19926;-87
2022/10/27 04:23:43;;;;;;;;;;;;;;;;;;4972558;28;19933;-86
2022/10/27 04:26:10;;;;;;;;;;;;;;;;;;4973047;28;19941;-87
2022/10/27 04:28:38;;;;;;;;;;;;;;;;;;4973075;28;19933;-86
2022/10/27 04:31:11;;;;;;;;;;;;;;;;;;4961092;28;19945;-87
2022/10/27 04:33:43;;;;;;;;;;;;;;;;;;4971894;28;19932;-86
2022/10/27 04:36:16;;;;;;;;;;;;;;;;;;4964194;28;19929;-86
2022/10/27 04:38:43;;;;;;;;;;;;;;;;;;4983978;28;19937;-86
2022/10/27 04:41:10;;;;;;;;;;;;;;;;;;4974275;28;19922;-86
2022/10/27 04:43:43;;;;;;;;;;;;;;;;;;4973115;28;19926;-86
2022/10/27 04:46:10;;;;;;;;;;;;;;;;;;4970184;28;19922;-86
2022/10/27 04:48:43;;;;;;;;;;;;;;;;;;4975056;28;20002;-86
2022/10/27 04:51:15;;;;;;;;;;;;;;;;;;4963239;28;19937;-86
2022/10/27 04:53:43;;;;;;;;;;;;;;;;;;4974735;28;20417;-87
2022/10/27 04:56:10;;;;;;;;;;;;;;;;;;4967994;28;20383;-87
2022/10/27 04:58:38;;;;;;;;;;;;;;;;;;4976172;28;19941;-87
2022/10/27 05:01:10;;;;;;;;;;;;;;;;;;4981167;28;19933;-87
2022/10/27 05:03:38;;;;;;;;;;;;;;;;;;4972580;28;19926;-86
2022/10/27 05:06:10;;;;;;;;;;;;;;;;;;4973484;28;19922;-87
2022/10/27 05:08:38;;;;;;;;;;;;;;;;;;4975676;28;19926;-86
2022/10/27 05:11:10;;;;;;;;;;;;;;;;;;4972860;28;19922;-86
2022/10/27 05:13:38;;;;;;;;;;;;;;;;;;4979938;28;19933;-86
2022/10/27 05:16:05;;;;;;;;;;;;;;;;;;4973286;28;19922;-86
2022/10/27 05:18:33;;;;;;;;;;;;;;;;;;4972129;28;19925;-86
2022/10/27 05:21:00;;;;;;;;;;;;;;;;;;4987229;28;19922;-86
2022/10/27 05:23:28;;;;;;;;;;;;;;;;;;4971256;28;21348;-87
2022/10/27 05:25:55;;;;;;;;;;;;;;;;;;4971775;28;19929;-87
2022/10/27 05:28:23;;;;;;;;;;;;;;;;;;4966253;28;19933;-87
2022/10/27 05:30:51;;;;;;;;;;;;;;;;;;4980013;28;19922;-87
2022/10/27 05:33:27;;;;;;;;;;;;;;;;;;4974157;28;19922;-87
2022/10/27 05:35:55;;;;;;;;;;;;;;;;;;4977871;28;20010;-86
2022/10/27 05:38:27;;;;;;;;;;;;;;;;;;4970478;28;19933;-87
2022/10/27 05:40:55;;;;;;;;;;;;;;;;;;4977028;28;19922;-87
2022/10/27 05:43:28;;;;;;;;;;;;;;;;;;4965111;28;19933;-87
2022/10/27 05:45:55;;;;;;;;;;;;;;;;;;4970140;28;20291;-88
2022/10/27 05:48:28;;;;;;;;;;;;;;;;;;4971480;28;19926;-87
2022/10/27 05:51:01;;;;;;;;;;;;;;;;;;4972585;28;19922;-87
2022/10/27 05:53:28;;;;;;;;;;;;;;;;;;4972290;28;19930;-86
2022/10/27 05:55:56;;;;;;;;;;;;;;;;;;4971599;28;19922;-87
2022/10/27 05:58:23;;;;;;;;;;;;;;;;;;4968919;28;19926;-87
2022/10/27 06:00:51;;;;;;;;;;;;;;;;;;4965803;28;19922;-87
2022/10/27 06:03:19;;;;;;;;;;;;;;;;;;4969873;28;19929;-87
2022/10/27 06:05:51;;;;;;;;;;;;;;;;;;4969394;28;20424;-86
2022/10/27 06:08:19;;;;;;;;;;;;;;;;;;4967091;28;19930;-86
2022/10/27 06:10:46;;;;;;;;;;;;;;;;;;4969944;28;19925;-87
2022/10/27 06:13:19;;;;;;;;;;;;;;;;;;4964039;28;20387;-87
2022/10/27 06:15:46;;;;;;;;;;;;;;;;;;4968931;28;19922;-87
2022/10/27 06:18:19;;;;;;;;;;;;;;;;;;4962294;28;19926;-87
2022/10/27 06:20:51;;;;;;;;;;;;;;;;;;4972002;28;19922;-87
2022/10/27 06:23:19;;;;;;;;;;;;;;;;;;4969995;28;19933;-87
2022/10/27 06:25:46;;;;;;;;;;;;;;;;;;4968602;28;20389;-86
2022/10/27 06:28:14;;;;;;;;;;;;;;;;;;4969498;28;19926;-87
2022/10/27 06:30:46;;;;;;;;;;;;;;;;;;4979127;28;20371;-87
2022/10/27 06:33:19;;;;;;;;;;;;;;;;;;4970723;28;20305;-86
2022/10/27 06:35:46;;;;;;;;;;;;;;;;;;4981691;28;19930;-87
2022/10/27 06:38:19;;;;;;;;;;;;;;;;;;4986512;28;19930;-87
2022/10/27 06:40:51;;;;;;;;;;;;;;;;;;4981585;28;19926;-87
2022/10/27 06:43:24;;;;;;;;;;;;;;;;;;4968459;28;19941;-87
2022/10/27 06:45:51;;;;;;;;;;;;;;;;;;4968954;28;19929;-87
2022/10/27 06:48:19;;;;;;;;;;;;;;;;;;4979203;28;19926;-87
2022/10/27 06:50:51;;;;;;;;;;;;;;;;;;4978414;28;19922;-87
2022/10/27 06:53:19;;;;;;;;;;;;;;;;;;4980025;28;19926;-88
2022/10/27 06:55:46;;;;;;;;;;;;;;;;;;4974605;28;19929;-88
2022/10/27 06:58:19;;;;;;;;;;;;;;;;;;4971823;28;19926;-87
2022/10/27 07:00:46;;;;;;;;;;;;;;;;;;4972398;28;20589;-86
2022/10/27 07:03:14;;;;;;;;;;;;;;;;;;4985119;28;19929;-86
2022/10/27 07:05:41;;;;;;;;;;;;;;;;;;4994228;28;19929;-88
2022/10/27 07:08:09;;;;;;;;;;;;;;;;;;4977283;28;19937;-86
2022/10/27 07:10:36;;;;;;;;;;;;;;;;;;4972316;28;19922;-86
2022/10/27 07:13:04;;;;;;;;;;;;;;;;;;4986862;28;19933;-86
2022/10/27 07:15:38;;;;;;;;;;;;;;;;;;4983639;28;19930;-86
2022/10/27 07:18:10;;;;;;;;;;;;;;;;;;4972112;28;19922;-87
2022/10/27 07:20:38;;;;;;;;;;;;;;;;;;4981351;28;19929;-86
2022/10/27 07:23:06;;;;;;;;;;;;;;;;;;4972614;28;19929;-87
2022/10/27 07:25:33;;;;;;;;;;;;;;;;;;4982450;28;19929;-86
2022/10/27 07:28:02;;;;;;;;;;;;;;;;;;4969510;28;20640;-87
2022/10/27 07:30:29;;;;;;;;;;;;;;;;;;4963893;28;20302;-86
2022/10/27 07:33:02;;;;;;;;;;;;;;;;;;4965641;28;20375;-86
2022/10/27 07:35:29;;;;;;;;;;;;;;;;;;4965751;28;19926;-86
2022/10/27 07:38:02;;;;;;;;;;;;;;;;;;4966401;28;19933;-86
2022/10/27 07:40:29;;;;;;;;;;;;;;;;;;4955434;28;19933;-86
2022/10/27 07:43:02;;;;;;;;;;;;;;;;;;4947196;28;20618;-87
2022/10/27 07:45:29;;;;;;;;;;;;;;;;;;4949759;28;19929;-86
2022/10/27 07:47:57;;;;;;;;;;;;;;;;;;4946795;28;20359;-86
2022/10/27 07:50:26;;;;;;;;;;;;;;;;;;4954358;28;21075;-86
2022/10/27 07:52:53;;;;;;;;;;;;;;;;;;4948962;28;19953;-85
2022/10/27 07:55:21;;;;;;;;;;;;;;;;;;4967608;28;19922;-86
2022/10/27 07:57:53;;;;;;;;;;;;;;;;;;4965447;28;19937;-85
2022/10/27 08:00:21;;;;;;;;;;;;;;;;;;4968309;28;19930;-86
2022/10/27 08:02:49;;;;;;;;;;;;;;;;;;4946566;28;21199;-85
2022/10/27 08:05:21;;;;;;;;;;;;;;;;;;4955549;28;19930;-85
2022/10/27 08:07:49;;;;;;;;;;;;;;;;;;4957924;28;19922;-86
2022/10/27 08:10:16;;;;;;;;;;;;;;;;;;4970657;28;20334;-86
2022/10/27 08:12:49;;;;;;;;;;;;;;;;;;4958374;28;19930;-86
2022/10/27 08:15:21;;;;;;;;;;;;;;;;;;4953808;28;20465;-86
2022/10/27 08:17:49;;;;;;;;;;;;;;;;;;4946591;28;19926;-86
2022/10/27 08:20:16;;;;;;;;;;;;;;;;;;4946121;28;19930;-85
2022/10/27 08:22:44;;;;;;;;;;;;;;;;;;4948052;28;19930;-86
2022/10/27 08:25:16;;;;;;;;;;;;;;;;;;4981963;28;19937;-89
2022/10/27 08:27:49;;;;;;;;;;;;;;;;;;4969099;28;19949;-86
2022/10/27 08:30:16;;;;;;;;;;;;;;;;;;4967114;28;19922;-86
2022/10/27 08:32:44;;;;;;;;;;;;;;;;;;4969137;28;20374;-86
2022/10/27 08:35:11;;;;;;;;;;;;;;;;;;4950436;28;19933;-85
2022/10/27 08:37:39;;;;;;;;;;;;;;;;;;4949390;28;19930;-86
2022/10/27 08:40:11;;;;;;;;;;;;;;;;;;4947163;28;20393;-86
2022/10/27 08:42:44;;;;;;;;;;;;;;;;;;4961063;28;20799;-86
2022/10/27 08:45:16;;;;;;;;;;;;;;;;;;4964646;28;20362;-85
2022/10/27 08:47:44;;;;;;;;;;;;;;;;;;4944405;28;19929;-86
2022/10/27 08:50:16;;;;;;;;;;;;;;;;;;4946809;28;19930;-86
2022/10/27 08:52:44;;;;;;;;;;;;;;;;;;4954925;28;20165;-86
2022/10/27 08:55:11;;;;;;;;;;;;;;;;;;4952576;28;19930;-85
2022/10/27 08:57:39;;;;;;;;;;;;;;;;;;4950155;28;19929;-85
2022/10/27 09:00:06;;;;;;;;;;;;;;;;;;4945011;28;19937;-86
2022/10/27 09:02:34;;;;;;;;;;;;;;;;;;4967523;28;19931;-85
2022/10/27 09:05:06;;;;;;;;;;;;;;;;;;4961013;28;20110;-85
2022/10/27 09:07:34;;;;;;;;;;;;;;;;;;4964364;28;20326;-87
2022/10/27 09:10:06;;;;;;;;;;;;;;;;;;4969085;28;19930;-84
2022/10/27 09:12:34;;;;;;;;;;;;;;;;;;4963064;28;19946;-85
2022/10/27 09:15:06;;;;;;;;;;;;;;;;;;4982979;28;19933;-85
2022/10/27 09:17:34;;;;;;;;;;;;;;;;;;4985805;28;19925;-86
2022/10/27 09:20:02;;;;;;;;;;;;;;;;;;4978456;28;19929;-86
2022/10/27 09:22:36;;;;;;;;;;;;;;;;;;4979156;28;20281;-85
2022/10/27 09:25:03;;;;;;;;;;;;;;;;;;4985501;28;19937;-84
2022/10/27 09:27:31;;;;;;;;;;;;;;;;;;4980602;28;19926;-86
2022/10/27 09:30:00;;;;;;;;;;;;;;;;;;4966628;28;19963;-86
2022/10/27 09:32:28;;;;;;;;;;;;;;;;;;4969927;28;19929;-87
2022/10/27 09:35:01;;;;;;;;;;;;;;;;;;4965717;28;19930;-85
2022/10/27 09:37:28;;;;;;;;;;;;;;;;;;4957722;28;19937;-84
2022/10/27 09:39:56;;;;;;;;;;;;;;;;;;4958986;28;19936;-85
2022/10/27 09:42:25;;;;;;;;;;;;;;;;;;4960755;28;19930;-84
2022/10/27 09:44:58;;;;;;;;;;;;;;;;;;4964932;28;19933;-84
2022/10/27 09:47:30;;;;;;;;;;;;;;;;;;4981870;28;19926;-84
2022/10/27 09:49:58;;;;;;;;;;;;;;;;;;4959313;28;19937;-85
2022/10/27 09:52:30;;;;;;;;;;;;;;;;;;4975989;28;19930;-85
2022/10/27 09:54:58;;;;;;;;;;;;;;;;;;4978249;28;20386;-85
2022/10/27 09:57:26;;;;;;;;;;;;;;;;;;4959187;28;19929;-84
2022/10/27 09:59:59;;;;;;;;;;;;;;;;;;4965022;28;21207;-85
2022/10/27 10:02:26;;;;;;;;;;;;;;;;;;4973744;28;20432;-85
2022/10/27 10:04:54;;;;;;;;;;;;;;;;;;4958063;28;19929;-84
2022/10/27 10:07:21;;;;;;;;;;;;;;;;;;4956841;28;20334;-85
2022/10/27 10:09:54;;;;;;;;;;;;;;;;;;4966601;28;19941;-85
2022/10/27 10:12:21;;;;;;;;;;;;;;;;;;4964498;28;19941;-84
2022/10/27 10:14:54;;;;;;;;;;;;;;;;;;4952333;28;20278;-84
2022/10/27 10:17:21;;;;;;;;;;;;;;;;;;4971758;28;19930;-85
2022/10/27 10:19:49;;;;;;;;;;;;;;;;;;4954908;28;19930;-85
2022/10/27 10:22:16;;;;;;;;;;;;;;;;;;4963959;28;19926;-85
2022/10/27 10:24:44;;;;;;;;;;;;;;;;;;4962940;28;20550;-85
2022/10/27 10:27:16;;;;;;;;;;;;;;;;;;4956331;28;20709;-85
2022/10/27 10:29:44;;;;;;;;;;;;;;;;;;4956942;28;19934;-86
2022/10/27 10:32:12;;;;;;;;;;;;;;;;;;4964416;28;19929;-86
2022/10/27 10:34:44;;;;;;;;;;;;;;;;;;4969323;28;19988;-85
2022/10/27 10:37:17;;;;;;;;;;;;;;;;;;4983835;28;19926;-85
2022/10/27 10:39:44;;;;;;;;;;;;;;;;;;4974199;28;19936;-85
2022/10/27 10:42:12;;;;;;;;;;;;;;;;;;4943651;28;19930;-85
2022/10/27 10:44:39;;;;;;;;;;;;;;;;;;4945487;28;19936;-86
2022/10/27 10:47:12;;;;;;;;;;;;;;;;;;4943624;28;20138;-86
2022/10/27 10:49:39;;;;;;;;;;;;;;;;;;4958643;28;19930;-85
2022/10/27 10:52:08;;;;;;;;;;;;;;;;;;4948545;28;19929;-86
2022/10/27 10:54:36;;;;;;;;;;;;;;;;;;4947913;28;19930;-87
2022/10/27 10:57:03;;;;;;;;;;;;;;;;;;4966123;28;20099;-86
2022/10/27 10:59:31;;;;;;;;;;;;;;;;;;4949493;28;20039;-85
2022/10/27 11:02:03;;;;;;;;;;;;;;;;;;4942340;28;19930;-86
2022/10/27 11:04:31;;;;;;;;;;;;;;;;;;4936322;28;20378;-86
2022/10/27 11:06:58;;;;;;;;;;;;;;;;;;4952903;28;20530;-86
2022/10/27 11:09:26;;;;;;;;;;;;;;;;;;4944190;28;19937;-86
2022/10/27 11:11:53;;;;;;;;;;;;;;;;;;4944729;28;19930;-86
2022/10/27 11:14:26;;;;;;;;;;;;;;;;;;4962282;28;19937;-85
2022/10/27 11:16:53;;;;;;;;;;;;;;;;;;4949841;28;20401;-85
2022/10/27 11:19:21;;;;;;;;;;;;;;;;;;4945349;28;19929;-85
2022/10/27 11:21:49;;;;;;;;;;;;;;;;;;4951509;28;20591;-85
2022/10/27 11:24:16;;;;;;;;;;;;;;;;;;4944603;28;19937;-86
2022/10/27 11:26:44;;;;;;;;;;;;;;;;;;4955824;28;19929;-85
2022/10/27 11:29:11;;;;;;;;;;;;;;;;;;4947040;28;19933;-85
2022/10/27 11:31:44;;;;;;;;;;;;;;;;;;4944088;28;19937;-85
2022/10/27 11:34:12;;;;;;;;;;;;;;;;;;4944636;28;19937;-84
2022/10/27 11:36:39;;;;;;;;;;;;;;;;;;4951197;28;20572;-85
2022/10/27 11:39:12;;;;;;;;;;;;;;;;;;4947704;28;20417;-86
2022/10/27 11:41:39;;;;;;;;;;;;;;;;;;4961652;28;20416;-86
2022/10/27 11:44:07;;;;;;;;;;;;;;;;;;4954027;28;19930;-85
2022/10/27 11:46:42;;;;;;;;;;;;;;;;;;4948441;28;19929;-85
2022/10/27 11:49:14;;;;;;;;;;;;;;;;;;4946792;28;19937;-85
2022/10/27 11:51:42;;;;;;;;;;;;;;;;;;4968795;28;19925;-86
2022/10/27 11:54:14;;;;;;;;;;;;;;;;;;4952945;28;20393;-85
2022/10/27 11:56:42;;;;;;;;;;;;;;;;;;4954634;28;20418;-86
2022/10/27 11:59:14;;;;;;;;;;;;;;;;;;4951855;28;20002;-86
2022/10/27 12:01:42;;;;;;;;;;;;;;;;;;4954945;28;19925;-86
2022/10/27 12:04:09;;;;;;;;;;;;;;;;;;4949709;28;20878;-84
2022/10/27 12:06:37;;;;;;;;;;;;;;;;;;4942567;28;19936;-84
2022/10/27 12:09:09;;;;;;;;;;;;;;;;;;4949558;28;19937;-84
2022/10/27 12:11:41;;;;;;;;;;;;;;;;;;4963259;28;20177;-85
2022/10/27 12:14:14;;;;;;;;;;;;;;;;;;4946162;28;19930;-84
2022/10/27 12:16:46;;;;;;;;;;;;;;;;;;4952439;28;20245;-84
2022/10/27 12:19:14;;;;;;;;;;;;;;;;;;4951155;28;19930;-84
2022/10/27 12:21:46;;;;;;;;;;;;;;;;;;4947007;28;19929;-84
2022/10/27 12:24:14;;;;;;;;;;;;;;;;;;4942061;28;19932;-83
2022/10/27 12:26:46;;;;;;;;;;;;;;;;;;4949086;28;19930;-84
2022/10/27 12:29:14;;;;;;;;;;;;;;;;;;4950801;28;19930;-84
2022/10/27 12:31:46;;;;;;;;;;;;;;;;;;4953128;28;20377;-85
2022/10/27 12:34:19;;;;;;;;;;;;;;;;;;4957542;28;20568;-84
2022/10/27 12:36:51;;;;;;;;;;;;;;;;;;4944268;28;21068;-84
2022/10/27 12:39:19;;;;;;;;;;;;;;;;;;4940135;28;19926;-85
2022/10/27 12:41:46;;;;;;;;;;;;;;;;;;4943209;28;20372;-84
2022/10/27 12:44:19;;;;;;;;;;;;;;;;;;4946145;28;19930;-84
2022/10/27 12:46:46;;;;;;;;;;;;;;;;;;4947918;28;20243;-84
2022/10/27 12:49:14;;;;;;;;;;;;;;;;;;4945518;28;19926;-84
2022/10/27 12:51:46;;;;;;;;;;;;;;;;;;4941171;28;19930;-84
2022/10/27 12:54:19;;;;;;;;;;;;;;;;;;4949233;28;19929;-84
2022/10/27 12:56:51;;;;;;;;;;;;;;;;;;4955702;28;19930;-85
2022/10/27 12:59:19;;;;;;;;;;;;;;;;;;4946520;28;19960;-84
2022/10/27 13:01:52;;;;;;;;;;;;;;;;;;4962023;28;19937;-84
2022/10/27 13:04:19;;;;;;;;;;;;;;;;;;4957789;28;19941;-84
2022/10/27 13:06:47;;;;;;;;;;;;;;;;;;4941217;28;19937;-84
2022/10/27 13:09:14;;;;;;;;;;;;;;;;;;4962599;28;20014;-84
2022/10/27 13:11:47;;;;;;;;;;;;;;;;;;4942888;28;19937;-85
2022/10/27 13:14:14;;;;;;;;;;;;;;;;;;4943354;28;19930;-84
2022/10/27 13:16:42;;;;;;;;;;;;;;;;;;4947467;28;19937;-83
2022/10/27 13:19:14;;;;;;;;;;;;;;;;;;4969275;28;19930;-84
2022/10/27 13:21:42;;;;;;;;;;;;;;;;;;4955567;28;20417;-84
2022/10/27 13:24:09;;;;;;;;;;;;;;;;;;4956085;28;19929;-85
2022/10/27 13:26:42;;;;;;;;;;;;;;;;;;4960317;28;19929;-84
2022/10/27 13:29:09;;;;;;;;;;;;;;;;;;4960402;28;19930;-85
2022/10/27 13:31:42;;;;;;;;;;;;;;;;;;4962969;28;19929;-84
2022/10/27 13:34:14;;;;;;;;;;;;;;;;;;4966280;28;20964;-83
2022/10/27 13:36:42;;;;;;;;;;;;;;;;;;4960386;28;19930;-84
2022/10/27 13:39:09;;;;;;;;;;;;;;;;;;4963613;28;19929;-84
2022/10/27 13:41:37;;;;;;;;;;;;;;;;;;4961077;28;19945;-85
2022/10/27 13:44:04;;;;;;;;;;;;;;;;;;4955576;28;19930;-84
2022/10/27 13:46:32;;;;;;;;;;;;;;;;;;4958275;28;19921;-84
2022/10/27 13:48:59;;;;;;;;;;;;;;;;;;4964208;28;19933;-84
2022/10/27 13:51:32;;;;;;;;;;;;;;;;;;4960140;28;19933;-84
2022/10/27 13:53:59;;;;;;;;;;;;;;;;;;4964546;28;19936;-85
2022/10/27 13:56:27;;;;;;;;;;;;;;;;;;4962601;28;20268;-84
2022/10/27 13:58:59;;;;;;;;;;;;;;;;;;4955067;28;19936;-83
2022/10/27 14:01:32;;;;;;;;;;;;;;;;;;4958780;28;19930;-84
2022/10/27 14:04:04;;;;;;;;;;;;;;;;;;4969037;28;19930;-84
2022/10/27 14:06:32;;;;;;;;;;;;;;;;;;4957943;28;19930;-84
2022/10/27 14:08:59;;;;;;;;;;;;;;;;;;4960880;28;19956;-85
2022/10/27 14:11:32;;;;;;;;;;;;;;;;;;4946258;28;19941;-84
2022/10/27 14:13:59;;;;;;;;;;;;;;;;;;4957136;28;19936;-84
2022/10/27 14:16:27;;;;;;;;;;;;;;;;;;4955160;28;20652;-84
2022/10/27 14:18:54;;;;;;;;;;;;;;;;;;4959852;28;19930;-84
2022/10/27 14:21:22;;;;;;;;;;;;;;;;;;4949761;28;20514;-85
2022/10/27 14:23:54;;;;;;;;;;;;;;;;;;4951059;28;19925;-84
2022/10/27 14:26:27;;;;;;;;;;;;;;;;;;4966161;28;19930;-83
2022/10/27 14:28:59;;;;;;;;;;;;;;;;;;4957739;28;20629;-84
2022/10/27 14:31:29;;;;;;;;;;;;;;;;;;4952774;28;19925;-84
2022/10/27 14:33:56;;;;;;;;;;;;;;;;;;4950028;28;19960;-84
2022/10/27 14:36:24;;;;;;;;;;;;;;;;;;4954740;28;19929;-84
2022/10/27 14:38:51;;;;;;;;;;;;;;;;;;4951312;28;19929;-84
2022/10/27 14:41:19;;;;;;;;;;;;;;;;;;4960643;28;20551;-84
2022/10/27 14:43:51;;;;;;;;;;;;;;;;;;4956174;28;19937;-86
2022/10/27 14:46:19;;;;;;;;;;;;;;;;;;4968668;28;19941;-84
2022/10/27 14:48:47;;;;;;;;;;;;;;;;;;4955336;28;20536;-84
2022/10/27 14:51:14;;;;;;;;;;;;;;;;;;4969229;28;20727;-85
2022/10/27 14:53:42;;;;;;;;;;;;;;;;;;4968878;28;19923;-87
2022/10/27 14:56:09;;;;;;;;;;;;;;;;;;4976639;28;20835;-84
2022/10/27 14:58:37;;;;;;;;;;;;;;;;;;4960265;28;19929;-85
2022/10/27 15:01:04;;;;;;;;;;;;;;;;;;4959419;28;20759;-87
2022/10/27 15:03:32;;;;;;;;;;;;;;;;;;4980049;28;19932;-84
2022/10/27 15:06:00;;;;;;;;;;;;;;;;;;4988117;28;20305;-84
2022/10/27 15:08:28;;;;;;;;;;;;;;;;;;4959057;28;21213;-85
2022/10/27 15:10:55;;;;;;;;;;;;;;;;;;4960660;28;20386;-86
2022/10/27 15:13:28;;;;;;;;;;;;;;;;;;4961313;28;19930;-85
2022/10/27 15:16:05;;;;;;;;;;;;;;;;;;4963094;28;19929;-86
2022/10/27 15:18:33;;;;;;;;;;;;;;;;;;4961040;28;19926;-83
2022/10/27 15:21:00;;;;;;;;;;;;;;;;;;4963350;28;19926;-85
2022/10/27 15:23:30;;;;;;;;;;;;;;;;;;4961326;28;19983;-86
2022/10/27 15:25:58;;;;;;;;;;;;;;;;;;4962104;28;19941;-87
2022/10/27 15:28:30;;;;;;;;;;;;;;;;;;4985187;28;19945;-87
2022/10/27 15:31:04;;;;;;;;;;;;;;;;;;4981795;28;20294;-87
2022/10/27 15:33:32;;;;;;;;;;;;;;;;;;4999602;28;19925;-87
2022/10/27 15:35:59;;;;;;;;;;;;;;;;;;4985466;28;19921;-87
2022/10/27 15:38:32;;;;;;;;;;;;;;;;;;4982226;28;20654;-86
2022/10/27 15:40:59;;;;;;;;;;;;;;;;;;4994189;28;19933;-86
2022/10/27 15:43:32;;;;;;;;;;;;;;;;;;4955802;28;19937;-87
2022/10/27 15:45:59;;;;;;;;;;;;;;;;;;4975364;28;19937;-87
2022/10/27 15:48:32;;;;;;;;;;;;;;;;;;4970636;28;20302;-87
2022/10/27 15:50:59;;;;;;;;;;;;;;;;;;4978998;28;19932;-86
2022/10/27 15:53:27;;;;;;;;;;;;;;;;;;4983419;28;19933;-87
2022/10/27 15:55:59;;;;;;;;;;;;;;;;;;4949219;28;19930;-87
2022/10/27 15:58:32;;;;;;;;;;;;;;;;;;4970523;28;19921;-85
2022/10/27 16:01:04;;;;;;;;;;;;;;;;;;4952607;28;20375;-86
2022/10/27 16:03:33;;;;;;;;;;;;;;;;;;4979467;28;20503;-87
2022/10/27 16:06:00;;;;;;;;;;;;;;;;;;4964115;28;19922;-87
2022/10/27 16:08:33;;;;;;;;;;;;;;;;;;4964249;28;19922;-86
2022/10/27 16:11:00;;;;;;;;;;;;;;;;;;4958611;28;19941;-87
2022/10/27 16:13:28;;;;;;;;;;;;;;;;;;4981454;28;19931;-84
2022/10/27 16:15:55;;;;;;;;;;;;;;;;;;4982164;28;20498;-85
2022/10/27 16:18:23;;;;;;;;;;;;;;;;;;4972062;28;19937;-87
2022/10/27 16:20:56;;;;;;;;;;;;;;;;;;4966362;28;20519;-86
2022/10/27 16:23:23;;;;;;;;;;;;;;;;;;4956651;28;19931;-86
2022/10/27 16:25:51;;;;;;;;;;;;;;;;;;4959858;28;19922;-86
2022/10/27 16:28:23;;;;;;;;;;;;;;;;;;4957565;28;19937;-87
2022/10/27 16:30:51;;;;;;;;;;;;;;;;;;4954566;28;20427;-86
2022/10/27 16:33:18;;;;;;;;;;;;;;;;;;4972727;28;20544;-87
2022/10/27 16:35:46;;;;;;;;;;;;;;;;;;4959118;28;19966;-87
2022/10/27 16:38:13;;;;;;;;;;;;;;;;;;4954576;28;19960;-87
2022/10/27 16:40:46;;;;;;;;;;;;;;;;;;4947377;28;19936;-87
2022/10/27 16:43:19;;;;;;;;;;;;;;;;;;4960764;28;19930;-85
2022/10/27 16:45:47;;;;;;;;;;;;;;;;;;4955982;28;19930;-87
2022/10/27 16:48:14;;;;;;;;;;;;;;;;;;4955221;28;19937;-85
2022/10/27 16:50:42;;;;;;;;;;;;;;;;;;4968931;28;20385;-86
2022/10/27 16:53:10;;;;;;;;;;;;;;;;;;4950412;28;19929;-86
2022/10/27 16:55:42;;;;;;;;;;;;;;;;;;4966156;28;20379;-86
2022/10/27 16:58:10;;;;;;;;;;;;;;;;;;4956169;28;21249;-86